Time;durP1;ratioP1;P1;durP2;ratioP2;P2;SDS_P1;SDS_P2;PMS_P1;PMS_P2;Temp;Humidity;BMP_temperature;BMP_pressure;BME280_temperature;BME280_humidity;BME280_pressure;Samples;Min_cycle;Max_cycle;Signal;HPM_P1;HPM_P2
2021/07/15 00:00:32;;;;;;;124.47;118.77;;;;;;;;;;5051384;28;20459;-74
2021/07/15 00:03:00;;;;;;;122.57;116.77;;;;;;;;;;5048901;28;21020;-74
2021/07/15 00:05:28;;;;;;;126.13;120.53;;;;;;;;;;5050298;28;20834;-74
2021/07/15 00:07:55;;;;;;;127.97;122.20;;;;;;;;;;5050364;28;20506;-73
2021/07/15 00:10:24;;;;;;;129.17;123.47;;;;;;;;;;5051249;28;20443;-72
2021/07/15 00:12:53;;;;;;;127.13;121.37;;;;;;;;;;5050223;28;20464;-71
2021/07/15 00:15:22;;;;;;;130.93;125.13;;;;;;;;;;5049133;28;20796;-74
2021/07/15 00:17:49;;;;;;;130.13;124.37;;;;;;;;;;5050199;28;20490;-72
2021/07/15 00:20:17;;;;;;;129.20;123.40;;;;;;;;;;5049919;28;20474;-73
2021/07/15 00:22:44;;;;;;;128.07;122.27;;;;;;;;;;5050191;28;20464;-73
2021/07/15 00:25:13;;;;;;;131.70;125.70;;;;;;;;;;5050695;28;20452;-72
2021/07/15 00:27:40;;;;;;;130.57;124.67;;;;;;;;;;5049176;28;20486;-73
2021/07/15 00:30:09;;;;;;;134.30;128.33;;;;;;;;;;5050651;28;20458;-73
2021/07/15 00:32:36;;;;;;;126.67;120.93;;;;;;;;;;5050383;28;20459;-74
2021/07/15 00:35:04;;;;;;;128.53;122.73;;;;;;;;;;5045686;28;20455;-73
2021/07/15 00:37:31;;;;;;;130.97;125.13;;;;;;;;;;5050355;28;20475;-73
2021/07/15 00:39:58;;;;;;;123.57;117.97;;;;;;;;;;5050411;28;20992;-73
2021/07/15 00:42:25;;;;;;;120.73;115.27;;;;;;;;;;5049793;28;20497;-73
2021/07/15 00:44:52;;;;;;;117.20;111.80;;;;;;;;;;5049241;28;20474;-73
2021/07/15 00:47:21;;;;;;;112.83;107.73;;;;;;;;;;5050012;28;20853;-74
2021/07/15 00:49:48;;;;;;;114.23;109.03;;;;;;;;;;5036202;28;20461;-74
2021/07/15 00:52:15;;;;;;;118.97;113.57;;;;;;;;;;5047156;28;20935;-74
2021/07/15 00:54:42;;;;;;;115.73;110.53;;;;;;;;;;5052109;28;20458;-72
2021/07/15 00:57:10;;;;;;;114.80;109.60;;;;;;;;;;5054162;28;20478;-74
2021/07/15 00:59:38;;;;;;;120.20;114.60;;;;;;;;;;5053940;28;21056;-74
2021/07/15 01:02:05;;;;;;;119.17;113.87;;;;;;;;;;5053055;28;20554;-73
2021/07/15 01:04:34;;;;;;;116.87;111.57;;;;;;;;;;5054493;28;20448;-74
2021/07/15 01:07:01;;;;;;;117.73;112.53;;;;;;;;;;5054497;28;20947;-74
2021/07/15 01:09:29;;;;;;;117.70;112.30;;;;;;;;;;5045888;28;20451;-74
2021/07/15 01:12:00;;;;;;;112.60;107.60;;;;;;;;;;5053316;28;20463;-74
2021/07/15 01:14:29;;;;;;;117.07;111.87;;;;;;;;;;5054505;28;20435;-74
2021/07/15 01:16:59;;;;;;;115.77;110.67;;;;;;;;;;5053464;28;20471;-74
2021/07/15 01:19:35;;;;;;;113.83;108.40;;;;;;;;;;5052645;28;20487;-74
2021/07/15 01:22:10;;;;;;;115.47;110.20;;;;;;;;;;5052620;28;20471;-74
2021/07/15 01:24:51;;;;;;;112.37;107.37;;;;;;;;;;5053413;28;20463;-73
2021/07/15 01:27:30;;;;;;;118.03;112.53;;;;;;;;;;5053039;28;20466;-74
2021/07/15 01:30:02;;;;;;;124.73;119.23;;;;;;;;;;5054749;28;20428;-74
2021/07/15 01:32:31;;;;;;;123.00;117.60;;;;;;;;;;5051759;28;20467;-74
2021/07/15 01:35:00;;;;;;;118.37;113.17;;;;;;;;;;5053450;28;20812;-74
2021/07/15 01:37:28;;;;;;;114.73;109.73;;;;;;;;;;5052093;28;20490;-74
2021/07/15 01:39:55;;;;;;;114.40;109.20;;;;;;;;;;5041797;28;20459;-73
2021/07/15 01:42:23;;;;;;;116.73;111.30;;;;;;;;;;5037174;28;20843;-74
2021/07/15 01:44:50;;;;;;;118.40;113.00;;;;;;;;;;5048797;28;20468;-73
2021/07/15 01:47:19;;;;;;;116.33;111.07;;;;;;;;;;5053440;28;20809;-72
2021/07/15 01:49:47;;;;;;;114.33;109.33;;;;;;;;;;5052479;28;20468;-74
2021/07/15 01:52:15;;;;;;;115.40;110.30;;;;;;;;;;5052670;28;20478;-74
2021/07/15 01:54:43;;;;;;;110.20;105.20;;;;;;;;;;5053395;28;20951;-74
2021/07/15 01:57:11;;;;;;;107.90;103.00;;;;;;;;;;5051865;28;20465;-74
2021/07/15 01:59:38;;;;;;;105.60;100.80;;;;;;;;;;5053757;28;20442;-74
2021/07/15 02:02:06;;;;;;;100.90;96.23;;;;;;;;;;5051680;28;20823;-74
2021/07/15 02:04:38;;;;;;;101.63;97.03;;;;;;;;;;5051338;28;20466;-74
2021/07/15 02:07:06;;;;;;;105.90;101.13;;;;;;;;;;5052764;28;21008;-74
2021/07/15 02:09:33;;;;;;;112.50;107.50;;;;;;;;;;5052733;28;20494;-74
2021/07/15 02:12:00;;;;;;;118.20;112.90;;;;;;;;;;5053134;28;20487;-73
2021/07/15 02:14:28;;;;;;;120.17;114.63;;;;;;;;;;5052340;28;20482;-74
2021/07/15 02:16:58;;;;;;;127.20;121.40;;;;;;;;;;5051412;28;20467;-73
2021/07/15 02:19:26;;;;;;;121.67;116.17;;;;;;;;;;5053634;28;20460;-74
2021/07/15 02:21:55;;;;;;;139.07;132.77;;;;;;;;;;5052361;28;20824;-74
2021/07/15 02:24:24;;;;;;;143.10;136.60;;;;;;;;;;5044631;28;20464;-74
2021/07/15 02:26:52;;;;;;;144.23;137.47;;;;;;;;;;5052763;28;20448;-73
2021/07/15 02:29:19;;;;;;;150.73;143.83;;;;;;;;;;5051925;28;20990;-74
2021/07/15 02:31:49;;;;;;;146.73;139.90;;;;;;;;;;5046278;28;20453;-74
2021/07/15 02:34:20;;;;;;;147.40;140.50;;;;;;;;;;5051566;28;20452;-74
2021/07/15 02:36:48;;;;;;;151.90;144.37;;;;;;;;;;5052952;28;20459;-74
2021/07/15 02:39:16;;;;;;;150.00;143.00;;;;;;;;;;5051938;28;20479;-74
2021/07/15 02:41:44;;;;;;;152.87;145.57;;;;;;;;;;5051014;28;20463;-72
2021/07/15 02:44:11;;;;;;;147.60;140.50;;;;;;;;;;5049622;28;20573;-72
2021/07/15 02:46:38;;;;;;;149.03;141.93;;;;;;;;;;5040684;28;20465;-74
2021/07/15 02:49:06;;;;;;;150.63;143.53;;;;;;;;;;5049403;28;20488;-74
2021/07/15 02:51:33;;;;;;;147.73;140.67;;;;;;;;;;5051853;28;20454;-72
2021/07/15 02:54:01;;;;;;;145.80;138.90;;;;;;;;;;5049295;28;21427;-73
2021/07/15 02:56:32;;;;;;;140.13;133.43;;;;;;;;;;5049530;28;20455;-73
2021/07/15 02:59:03;;;;;;;136.20;130.00;;;;;;;;;;5052451;28;20468;-73
2021/07/15 03:01:31;;;;;;;131.97;125.87;;;;;;;;;;5048263;28;20859;-73
2021/07/15 03:04:01;;;;;;;129.57;123.57;;;;;;;;;;5051654;28;20468;-73
2021/07/15 03:06:33;;;;;;;130.90;124.80;;;;;;;;;;5052284;28;20448;-73
2021/07/15 03:09:02;;;;;;;127.57;121.67;;;;;;;;;;5051017;28;20545;-73
2021/07/15 03:11:34;;;;;;;128.77;122.87;;;;;;;;;;5051633;28;20468;-72
2021/07/15 03:14:03;;;;;;;129.80;123.70;;;;;;;;;;5043123;28;20460;-74
2021/07/15 03:16:30;;;;;;;131.00;125.00;;;;;;;;;;5031693;28;20515;-74
2021/07/15 03:18:58;;;;;;;126.23;120.23;;;;;;;;;;5050154;28;20494;-74
2021/07/15 03:21:26;;;;;;;123.50;117.40;;;;;;;;;;5051964;28;20525;-74
2021/07/15 03:23:54;;;;;;;124.70;118.80;;;;;;;;;;5051790;28;20464;-74
2021/07/15 03:26:22;;;;;;;121.60;115.90;;;;;;;;;;5050896;28;20452;-74
2021/07/15 03:28:52;;;;;;;114.20;108.60;;;;;;;;;;5047342;28;20858;-74
2021/07/15 03:31:20;;;;;;;111.57;106.27;;;;;;;;;;5050582;28;20972;-74
2021/07/15 03:33:48;;;;;;;116.30;110.70;;;;;;;;;;5050757;28;20468;-74
2021/07/15 03:36:15;;;;;;;110.33;105.23;;;;;;;;;;5050921;28;20451;-74
2021/07/15 03:38:43;;;;;;;110.47;105.17;;;;;;;;;;5051303;28;20472;-72
2021/07/15 03:41:11;;;;;;;111.20;105.90;;;;;;;;;;5051336;28;20838;-73
2021/07/15 03:43:38;;;;;;;116.97;111.17;;;;;;;;;;5041144;28;20935;-74
2021/07/15 03:46:07;;;;;;;122.03;116.33;;;;;;;;;;5043319;28;20464;-70
2021/07/15 03:48:35;;;;;;;123.03;117.23;;;;;;;;;;5049670;28;20495;-73
2021/07/15 03:51:04;;;;;;;115.90;110.40;;;;;;;;;;5050694;28;20458;-74
2021/07/15 03:53:32;;;;;;;115.80;110.20;;;;;;;;;;5045060;28;20473;-74
2021/07/15 03:56:00;;;;;;;109.43;104.17;;;;;;;;;;5051702;28;20450;-74
2021/07/15 03:58:27;;;;;;;110.60;105.17;;;;;;;;;;5049854;28;20853;-73
2021/07/15 04:00:57;;;;;;;111.53;105.93;;;;;;;;;;5052110;28;20447;-71
2021/07/15 04:03:26;;;;;;;105.37;100.23;;;;;;;;;;5048324;28;20491;-74
2021/07/15 04:05:54;;;;;;;102.27;97.27;;;;;;;;;;5051871;28;20452;-73
2021/07/15 04:08:22;;;;;;;98.27;93.57;;;;;;;;;;5050323;28;20491;-73
2021/07/15 04:10:50;;;;;;;92.07;87.47;;;;;;;;;;5050304;28;20547;-74
2021/07/15 04:13:18;;;;;;;92.27;87.77;;;;;;;;;;5050140;28;20832;-74
2021/07/15 04:16:05;;;;;;;82.90;78.70;;;;;;;;;;5051363;28;20447;-74
2021/07/15 04:18:35;;;;;;;91.30;86.80;;;;;;;;;;5046651;28;20485;-74
2021/07/15 04:21:02;;;;;;;87.10;82.80;;;;;;;;;;5050583;28;20443;-74
2021/07/15 04:23:32;;;;;;;85.90;81.60;;;;;;;;;;5042565;28;20476;-73
2021/07/15 04:25:59;;;;;;;80.83;76.70;;;;;;;;;;5051574;28;21075;-74
2021/07/15 04:28:27;;;;;;;77.03;72.93;;;;;;;;;;5050338;28;20515;-74
2021/07/15 04:30:55;;;;;;;69.40;65.70;;;;;;;;;;5054522;28;20447;-74
2021/07/15 04:33:25;;;;;;;68.17;64.57;;;;;;;;;;5053442;28;20835;-74
2021/07/15 04:35:54;;;;;;;63.70;60.13;;;;;;;;;;5055493;28;20453;-73
2021/07/15 04:38:23;;;;;;;62.97;59.40;;;;;;;;;;5054114;28;20509;-70
2021/07/15 04:40:51;;;;;;;62.70;59.10;;;;;;;;;;5063198;22;20506;-67
2021/07/15 04:43:19;;;;;;;66.00;62.27;;;;;;;;;;5031540;28;20803;-67
2021/07/15 04:45:46;;;;;;;67.40;63.60;;;;;;;;;;5034833;28;20575;-66
2021/07/15 04:48:17;;;;;;;66.57;62.97;;;;;;;;;;5033854;28;20471;-66
2021/07/15 04:50:45;;;;;;;72.07;68.10;;;;;;;;;;5034643;28;20468;-66
2021/07/15 04:53:16;;;;;;;71.27;67.37;;;;;;;;;;5033986;28;20599;-66
2021/07/15 04:55:43;;;;;;;70.20;66.20;;;;;;;;;;5033064;28;20482;-66
2021/07/15 04:58:10;;;;;;;69.27;65.23;;;;;;;;;;5033579;28;20840;-67
2021/07/15 05:00:38;;;;;;;82.00;77.90;;;;;;;;;;5033362;28;20991;-71
2021/07/15 05:03:14;;;;;;;70.03;66.03;;;;;;;;;;5034474;28;20452;-68
2021/07/15 05:05:41;;;;;;;68.63;64.43;;;;;;;;;;5033715;28;20834;-68
2021/07/15 05:08:08;;;;;;;66.80;62.50;;;;;;;;;;5031968;28;20537;-68
2021/07/15 05:10:37;;;;;;;63.20;59.50;;;;;;;;;;5033728;28;20496;-69
2021/07/15 05:13:04;;;;;;;64.90;61.00;;;;;;;;;;5032381;28;21038;-65
2021/07/15 05:15:31;;;;;;;70.73;66.53;;;;;;;;;;5014938;28;20449;-66
2021/07/15 05:17:58;;;;;;;63.83;60.07;;;;;;;;;;5019817;28;20470;-66
2021/07/15 05:20:26;;;;;;;70.43;66.63;;;;;;;;;;5032779;28;20480;-66
2021/07/15 05:22:53;;;;;;;68.03;64.23;;;;;;;;;;5034335;28;20452;-66
2021/07/15 05:25:20;;;;;;;106.60;101.90;;;;;;;;;;5033845;28;20464;-66
2021/07/15 05:27:48;;;;;;;67.00;63.20;;;;;;;;;;5031768;28;20460;-66
2021/07/15 05:30:16;;;;;;;66.40;62.20;;;;;;;;;;5033152;28;20492;-66
2021/07/15 05:32:43;;;;;;;65.33;61.53;;;;;;;;;;5032304;28;20465;-66
2021/07/15 05:35:10;;;;;;;66.33;62.43;;;;;;;;;;5032230;28;20476;-66
2021/07/15 05:37:38;;;;;;;63.33;59.60;;;;;;;;;;5032732;28;20468;-67
2021/07/15 05:40:06;;;;;;;61.70;58.10;;;;;;;;;;5032750;28;21108;-68
2021/07/15 05:42:33;;;;;;;62.23;58.53;;;;;;;;;;5031101;28;20472;-68
2021/07/15 05:45:01;;;;;;;60.20;56.40;;;;;;;;;;5031876;28;20629;-68
2021/07/15 05:47:28;;;;;;;60.27;56.70;;;;;;;;;;5019625;28;20483;-66
2021/07/15 05:49:56;;;;;;;60.70;57.10;;;;;;;;;;5015850;28;20508;-66
2021/07/15 05:52:23;;;;;;;56.43;52.83;;;;;;;;;;5023130;28;20465;-67
2021/07/15 05:54:54;;;;;;;60.30;56.33;;;;;;;;;;5014735;28;20465;-67
2021/07/15 05:57:21;;;;;;;60.57;56.80;;;;;;;;;;5018489;28;20511;-67
2021/07/15 05:59:48;;;;;;;58.80;55.30;;;;;;;;;;5024765;28;20849;-67
2021/07/15 06:02:17;;;;;;;59.17;55.77;;;;;;;;;;5017972;28;20463;-68
2021/07/15 06:04:44;;;;;;;58.20;54.70;;;;;;;;;;5031447;28;20457;-67
2021/07/15 06:07:11;;;;;;;57.30;53.70;;;;;;;;;;5030693;28;20452;-66
2021/07/15 06:09:38;;;;;;;58.40;54.93;;;;;;;;;;5028066;28;20488;-69
2021/07/15 06:12:06;;;;;;;57.03;53.63;;;;;;;;;;5032125;28;20452;-65
2021/07/15 06:14:33;;;;;;;59.60;56.20;;;;;;;;;;5023912;28;20441;-67
2021/07/15 06:17:00;;;;;;;65.30;61.57;;;;;;;;;;5013243;28;20834;-66
2021/07/15 06:19:28;;;;;;;61.00;57.40;;;;;;;;;;5014397;28;20466;-67
2021/07/15 06:21:56;;;;;;;56.33;53.03;;;;;;;;;;5012568;28;20464;-67
2021/07/15 06:24:23;;;;;;;51.43;48.33;;;;;;;;;;5014385;28;20457;-66
2021/07/15 06:26:50;;;;;;;54.53;51.40;;;;;;;;;;5013370;28;20456;-67
2021/07/15 06:29:17;;;;;;;52.47;48.87;;;;;;;;;;5013734;28;20485;-67
2021/07/15 06:31:44;;;;;;;53.10;50.00;;;;;;;;;;5013315;28;20456;-66
2021/07/15 06:34:12;;;;;;;46.27;43.57;;;;;;;;;;5023916;28;20448;-67
2021/07/15 06:36:43;;;;;;;46.07;43.30;;;;;;;;;;5033845;28;20457;-67
2021/07/15 06:39:10;;;;;;;45.37;42.63;;;;;;;;;;5022763;28;20806;-67
2021/07/15 06:41:37;;;;;;;52.47;49.57;;;;;;;;;;5014108;28;20465;-67
2021/07/15 06:44:05;;;;;;;43.77;41.17;;;;;;;;;;5014064;28;20842;-67
2021/07/15 06:46:33;;;;;;;48.03;45.13;;;;;;;;;;5013185;28;20454;-67
2021/07/15 06:49:00;;;;;;;46.97;44.27;;;;;;;;;;5013372;28;20461;-67
2021/07/15 06:51:27;;;;;;;49.47;46.67;;;;;;;;;;5012794;28;20478;-67
2021/07/15 06:53:56;;;;;;;46.30;43.73;;;;;;;;;;5023543;28;20453;-65
2021/07/15 06:56:23;;;;;;;48.60;45.90;;;;;;;;;;5018072;28;20454;-70
2021/07/15 06:58:50;;;;;;;45.43;42.73;;;;;;;;;;5027084;28;20845;-67
2021/07/15 07:01:17;;;;;;;46.70;44.10;;;;;;;;;;5023710;28;20465;-67
2021/07/15 07:03:44;;;;;;;45.87;43.17;;;;;;;;;;5012539;28;20445;-67
2021/07/15 07:06:11;;;;;;;45.60;43.17;;;;;;;;;;5013236;28;20464;-67
2021/07/15 07:08:39;;;;;;;44.80;42.37;;;;;;;;;;5012666;28;20983;-67
2021/07/15 07:11:07;;;;;;;46.47;43.87;;;;;;;;;;5016482;28;20499;-67
2021/07/15 07:13:34;;;;;;;48.10;45.43;;;;;;;;;;5022351;28;20453;-67
2021/07/15 07:16:01;;;;;;;42.80;40.20;;;;;;;;;;5027940;28;20464;-67
2021/07/15 07:18:28;;;;;;;40.00;37.70;;;;;;;;;;5012618;28;20453;-67
2021/07/15 07:20:56;;;;;;;38.80;36.60;;;;;;;;;;5012728;28;20484;-67
2021/07/15 07:23:23;;;;;;;37.57;35.47;;;;;;;;;;5012337;28;20504;-67
2021/07/15 07:25:50;;;;;;;36.40;33.80;;;;;;;;;;5013604;28;20818;-67
2021/07/15 07:28:18;;;;;;;43.80;41.40;;;;;;;;;;5014951;28;20614;-67
2021/07/15 07:30:45;;;;;;;47.60;45.10;;;;;;;;;;5031067;28;20825;-65
2021/07/15 07:33:12;;;;;;;46.20;43.80;;;;;;;;;;5031009;28;20788;-67
2021/07/15 07:35:40;;;;;;;45.40;43.00;;;;;;;;;;5031966;28;20457;-67
2021/07/15 07:38:07;;;;;;;48.30;45.70;;;;;;;;;;5012957;28;20457;-67
2021/07/15 07:40:34;;;;;;;42.00;39.50;;;;;;;;;;5011877;28;20491;-67
2021/07/15 07:43:01;;;;;;;42.70;40.10;;;;;;;;;;5012617;28;20800;-67
2021/07/15 07:45:29;;;;;;;33.50;31.60;;;;;;;;;;5012268;28;20445;-67
2021/07/15 07:47:56;;;;;;;37.43;35.23;;;;;;;;;;5013548;28;20453;-67
2021/07/15 07:50:24;;;;;;;33.97;31.93;;;;;;;;;;5011411;28;20485;-68
2021/07/15 07:52:51;;;;;;;31.60;29.70;;;;;;;;;;5015755;28;20457;-67
2021/07/15 07:55:18;;;;;;;33.20;31.10;;;;;;;;;;5031805;28;20452;-67
2021/07/15 07:57:45;;;;;;;30.93;29.23;;;;;;;;;;5028976;28;20452;-67
2021/07/15 08:00:14;;;;;;;32.43;30.43;;;;;;;;;;5031339;28;20463;-63
2021/07/15 08:02:43;;;;;;;33.63;31.63;;;;;;;;;;5024563;28;20459;-67
2021/07/15 08:05:11;;;;;;;31.33;29.43;;;;;;;;;;5031150;28;20454;-67
2021/07/15 08:07:39;;;;;;;30.83;28.93;;;;;;;;;;5019206;28;20453;-67
2021/07/15 08:10:07;;;;;;;32.67;30.57;;;;;;;;;;5027453;28;20691;-67
2021/07/15 08:12:35;;;;;;;31.63;29.63;;;;;;;;;;5031383;28;20797;-67
2021/07/15 08:15:02;;;;;;;31.17;29.10;;;;;;;;;;5031787;28;20448;-67
2021/07/15 08:17:29;;;;;;;30.13;28.13;;;;;;;;;;5024537;28;20460;-67
2021/07/15 08:19:57;;;;;;;29.37;27.57;;;;;;;;;;5011671;28;20484;-67
2021/07/15 08:22:24;;;;;;;29.53;27.73;;;;;;;;;;5020154;28;20631;-67
2021/07/15 08:24:51;;;;;;;29.30;27.50;;;;;;;;;;5031521;28;20452;-67
2021/07/15 08:27:19;;;;;;;31.70;29.80;;;;;;;;;;5030699;28;20453;-66
2021/07/15 08:29:46;;;;;;;29.10;27.40;;;;;;;;;;5031486;28;20484;-67
2021/07/15 08:32:13;;;;;;;30.63;28.63;;;;;;;;;;5012181;28;20840;-66
2021/07/15 08:34:40;;;;;;;29.47;27.67;;;;;;;;;;5027164;28;20872;-68
2021/07/15 08:37:08;;;;;;;27.47;25.77;;;;;;;;;;5030838;28;20463;-67
2021/07/15 08:39:35;;;;;;;29.23;27.33;;;;;;;;;;5031236;28;20487;-67
2021/07/15 08:42:03;;;;;;;28.87;27.17;;;;;;;;;;5027888;28;20460;-67
2021/07/15 08:44:30;;;;;;;26.73;25.23;;;;;;;;;;5015281;28;20831;-67
2021/07/15 08:46:58;;;;;;;28.83;27.23;;;;;;;;;;5019975;28;20465;-66
2021/07/15 08:49:25;;;;;;;29.33;27.57;;;;;;;;;;5030979;28;20495;-66
2021/07/15 08:51:52;;;;;;;30.17;28.47;;;;;;;;;;5030157;28;20492;-67
2021/07/15 08:54:28;;;;;;;28.10;26.30;;;;;;;;;;5025457;28;20453;-67
2021/07/15 08:56:54;;;;;;;26.10;24.60;;;;;;;;;;5030430;28;20455;-66
2021/07/15 08:59:22;;;;;;;29.47;27.77;;;;;;;;;;5011602;28;20456;-66
2021/07/15 09:01:51;;;;;;;28.70;26.80;;;;;;;;;;5010781;28;20453;-65
2021/07/15 09:04:20;;;;;;;25.20;23.70;;;;;;;;;;5011530;28;20507;-67
2021/07/15 09:06:47;;;;;;;27.20;25.60;;;;;;;;;;5011038;28;20972;-70
2021/07/15 09:09:14;;;;;;;26.63;25.03;;;;;;;;;;5030206;28;20455;-67
2021/07/15 09:11:45;;;;;;;27.10;25.60;;;;;;;;;;5030662;28;20514;-67
2021/07/15 09:14:14;;;;;;;24.97;23.27;;;;;;;;;;5011703;28;20457;-67
2021/07/15 09:16:47;;;;;;;27.03;25.43;;;;;;;;;;5014147;28;20480;-67
2021/07/15 09:19:14;;;;;;;26.50;24.80;;;;;;;;;;5031133;28;20451;-67
2021/07/15 09:21:41;;;;;;;26.60;25.00;;;;;;;;;;5033889;28;20818;-67
2021/07/15 09:24:23;;;;;;;26.90;25.30;;;;;;;;;;5018368;28;20453;-66
2021/07/15 09:26:52;;;;;;;31.57;29.70;;;;;;;;;;5014608;28;20457;-67
2021/07/15 09:29:19;;;;;;;31.00;29.10;;;;;;;;;;5031720;28;20458;-67
2021/07/15 09:31:54;;;;;;;29.37;27.67;;;;;;;;;;5034244;28;20484;-66
2021/07/15 09:34:21;;;;;;;31.27;29.47;;;;;;;;;;5029957;28;20456;-67
2021/07/15 09:36:49;;;;;;;28.70;27.00;;;;;;;;;;5033928;28;20452;-67
2021/07/15 09:39:17;;;;;;;29.73;27.90;;;;;;;;;;5033659;28;20460;-67
2021/07/15 09:41:44;;;;;;;29.97;28.17;;;;;;;;;;5031809;28;20445;-67
2021/07/15 09:44:12;;;;;;;29.20;27.40;;;;;;;;;;5033677;28;20445;-67
2021/07/15 09:46:39;;;;;;;29.30;27.60;;;;;;;;;;5024188;28;20459;-67
2021/07/15 09:49:08;;;;;;;27.93;26.23;;;;;;;;;;5014127;28;20827;-66
2021/07/15 09:51:42;;;;;;;29.80;28.10;;;;;;;;;;5014477;28;20491;-67
2021/07/15 09:54:10;;;;;;;28.90;27.20;;;;;;;;;;5024376;28;20459;-67
2021/07/15 09:56:45;;;;;;;28.40;26.80;;;;;;;;;;5024510;28;20544;-65
2021/07/15 09:59:14;;;;;;;29.93;28.13;;;;;;;;;;5014158;28;20459;-67
2021/07/15 10:01:45;;;;;;;29.60;27.90;;;;;;;;;;5020664;28;20449;-67
2021/07/15 10:04:13;;;;;;;28.77;27.17;;;;;;;;;;5014188;28;20453;-67
2021/07/15 10:06:46;;;;;;;30.17;28.37;;;;;;;;;;5022209;28;20464;-67
2021/07/15 10:09:24;;;;;;;29.33;27.63;;;;;;;;;;5033568;28;20459;-67
2021/07/15 10:11:54;;;;;;;31.43;29.63;;;;;;;;;;5024675;28;20481;-67
2021/07/15 10:14:31;;;;;;;30.27;28.47;;;;;;;;;;5013647;28;20457;-66
2021/07/15 10:16:58;;;;;;;29.80;27.80;;;;;;;;;;5019933;28;20450;-66
2021/07/15 10:19:25;;;;;;;28.80;26.83;;;;;;;;;;5013168;28;20468;-65
2021/07/15 10:21:56;;;;;;;29.07;27.43;;;;;;;;;;5021756;28;20444;-65
2021/07/15 10:24:25;;;;;;;28.87;27.17;;;;;;;;;;5033261;28;20458;-65
2021/07/15 10:26:54;;;;;;;28.10;26.50;;;;;;;;;;5026487;28;20449;-65
2021/07/15 10:29:23;;;;;;;27.73;26.13;;;;;;;;;;5015727;28;20791;-65
2021/07/15 10:31:51;;;;;;;28.30;26.60;;;;;;;;;;5031786;28;20487;-65
2021/07/15 10:34:18;;;;;;;27.70;26.00;;;;;;;;;;5027355;28;20457;-66
2021/07/15 10:36:45;;;;;;;28.20;26.40;;;;;;;;;;5032690;28;20452;-65
2021/07/15 10:39:14;;;;;;;26.77;25.27;;;;;;;;;;5032728;28;20450;-65
2021/07/15 10:41:43;;;;;;;26.20;24.70;;;;;;;;;;5087923;22;20494;-65
2021/07/15 10:44:10;;;;;;;26.87;25.37;;;;;;;;;;5074942;28;20455;-69
2021/07/15 10:46:39;;;;;;;26.23;24.63;;;;;;;;;;5073006;28;20533;-65
2021/07/15 10:49:08;;;;;;;27.10;25.60;;;;;;;;;;5073181;28;20461;-66
2021/07/15 10:51:36;;;;;;;27.03;25.50;;;;;;;;;;5072042;28;20474;-65
2021/07/15 10:54:03;;;;;;;27.07;25.53;;;;;;;;;;5079824;28;20453;-65
2021/07/15 10:56:31;;;;;;;26.67;25.17;;;;;;;;;;5076671;28;20449;-66
2021/07/15 10:58:58;;;;;;;26.77;25.17;;;;;;;;;;5072250;28;20452;-65
2021/07/15 11:01:43;;;;;;;26.57;25.07;;;;;;;;;;5080389;28;20474;-66
2021/07/15 11:04:13;;;;;;;26.60;24.93;;;;;;;;;;5076586;28;20438;-65
2021/07/15 11:06:42;;;;;;;26.50;24.77;;;;;;;;;;5083310;28;20484;-66
2021/07/15 11:09:11;;;;;;;25.60;24.10;;;;;;;;;;5092541;28;20468;-66
2021/07/15 11:11:40;;;;;;;25.10;23.70;;;;;;;;;;5072782;28;20497;-66
2021/07/15 11:14:07;;;;;;;26.10;24.70;;;;;;;;;;5069783;28;20473;-67
2021/07/15 11:16:53;;;;;;;26.67;25.17;;;;;;;;;;5059775;28;20478;-67
2021/07/15 11:19:39;;;;;;;26.90;25.40;;;;;;;;;;5054062;28;20439;-67
2021/07/15 11:22:07;;;;;;;26.80;25.20;;;;;;;;;;5067472;28;20821;-67
2021/07/15 11:24:53;;;;;;;27.00;25.40;;;;;;;;;;5069262;28;20451;-66
2021/07/15 11:27:37;;;;;;;26.73;25.13;;;;;;;;;;5059393;28;20435;-67
2021/07/15 11:30:05;;;;;;;26.53;24.80;;;;;;;;;;5056587;28;20565;-68
2021/07/15 11:32:32;;;;;;;27.43;25.93;;;;;;;;;;5061069;28;20467;-68
2021/07/15 11:34:59;;;;;;;26.90;25.30;;;;;;;;;;5078037;28;20465;-69
2021/07/15 11:37:37;;;;;;;23.40;22.10;;;;;;;;;;5061476;28;20448;-69
2021/07/15 11:40:06;;;;;;;25.90;24.50;;;;;;;;;;5071331;28;20478;-69
2021/07/15 11:42:35;;;;;;;24.83;23.53;;;;;;;;;;5072295;28;20451;-69
2021/07/15 11:45:03;;;;;;;25.40;24.00;;;;;;;;;;5069804;28;20485;-69
2021/07/15 11:47:55;;;;;;;25.90;24.40;;;;;;;;;;5052185;28;20458;-69
2021/07/15 11:50:33;;;;;;;27.50;25.70;;;;;;;;;;5045123;28;20486;-69
2021/07/15 11:53:16;;;;;;;22.30;21.10;;;;;;;;;;5062301;28;20458;-69
2021/07/15 11:55:43;;;;;;;25.07;23.57;;;;;;;;;;5086171;28;20453;-69
2021/07/15 11:58:10;;;;;;;22.47;21.17;;;;;;;;;;5053635;28;20456;-70
2021/07/15 12:00:37;;;;;;;24.20;22.80;;;;;;;;;;5064885;28;20844;-70
2021/07/15 12:03:04;;;;;;;24.40;22.90;;;;;;;;;;5077994;28;20451;-70
2021/07/15 12:05:34;;;;;;;23.47;22.17;;;;;;;;;;5072042;28;20446;-68
2021/07/15 12:08:09;;;;;;;24.67;23.20;;;;;;;;;;5071248;28;20447;-68
2021/07/15 12:10:38;;;;;;;25.80;24.23;;;;;;;;;;5071240;28;20470;-67
2021/07/15 12:13:08;;;;;;;25.60;24.00;;;;;;;;;;5071399;28;20492;-67
2021/07/15 12:15:35;;;;;;;25.07;23.60;;;;;;;;;;5075953;28;20823;-67
2021/07/15 12:18:03;;;;;;;24.60;23.20;;;;;;;;;;5076555;28;20455;-67
2021/07/15 12:20:37;;;;;;;24.17;22.83;;;;;;;;;;5071188;28;20475;-67
2021/07/15 12:23:05;;;;;;;23.50;22.10;;;;;;;;;;5071605;28;20529;-67
2021/07/15 12:25:34;;;;;;;24.20;22.90;;;;;;;;;;5074491;28;20452;-68
2021/07/15 12:28:05;;;;;;;24.60;23.20;;;;;;;;;;5071085;28;20471;-67
2021/07/15 12:30:40;;;;;;;23.00;21.70;;;;;;;;;;5059700;28;20866;-68
2021/07/15 12:33:07;;;;;;;23.53;22.10;;;;;;;;;;5054240;28;20521;-67
2021/07/15 12:35:35;;;;;;;23.53;22.17;;;;;;;;;;5069846;28;20456;-68
2021/07/15 12:38:16;;;;;;;22.33;20.93;;;;;;;;;;5051403;28;20963;-68
2021/07/15 12:40:43;;;;;;;22.73;21.40;;;;;;;;;;5063802;28;20501;-68
2021/07/15 12:43:16;;;;;;;23.47;22.10;;;;;;;;;;5058284;28;20458;-68
2021/07/15 12:45:47;;;;;;;23.20;21.90;;;;;;;;;;5051388;28;20435;-68
2021/07/15 12:48:14;;;;;;;23.07;21.67;;;;;;;;;;5051329;28;20427;-67
2021/07/15 12:50:42;;;;;;;22.87;21.37;;;;;;;;;;5071506;28;20504;-68
2021/07/15 12:53:13;;;;;;;22.90;21.70;;;;;;;;;;5074737;28;20478;-68
2021/07/15 12:55:41;;;;;;;22.43;21.23;;;;;;;;;;5074914;28;20454;-68
2021/07/15 12:58:08;;;;;;;22.90;21.70;;;;;;;;;;5075344;28;20453;-68
2021/07/15 13:00:37;;;;;;;22.77;21.43;;;;;;;;;;5080276;28;20476;-68
2021/07/15 13:03:05;;;;;;;24.03;22.73;;;;;;;;;;5076039;28;20448;-68
2021/07/15 13:05:32;;;;;;;23.50;22.20;;;;;;;;;;5095048;28;20444;-68
2021/07/15 13:08:00;;;;;;;24.10;22.70;;;;;;;;;;5094249;28;20444;-67
2021/07/15 13:14:12;;;;;;;23.93;22.43;;;;;;;;;;5082364;28;20504;-67
2021/07/15 13:16:11;;;;;;;23.60;22.30;;;;;;;;;;5073787;28;20450;-67
2021/07/15 13:18:39;;;;;;;24.00;22.70;;;;;;;;;;5074372;28;20446;-68
2021/07/15 13:21:07;;;;;;;23.20;21.90;;;;;;;;;;5078385;28;20523;-68
2021/07/15 13:23:38;;;;;;;23.43;22.03;;;;;;;;;;5074181;28;20445;-68
2021/07/15 13:26:09;;;;;;;24.43;22.93;;;;;;;;;;5072366;28;20534;-68
2021/07/15 13:28:36;;;;;;;27.63;25.93;;;;;;;;;;5087861;28;20449;-68
2021/07/15 13:31:13;;;;;;;27.63;26.03;;;;;;;;;;5074795;28;20462;-66
2021/07/15 13:33:42;;;;;;;27.13;25.23;;;;;;;;;;5074403;28;20827;-65
2021/07/15 13:36:09;;;;;;;26.43;24.83;;;;;;;;;;5073887;28;20458;-70
2021/07/15 13:38:41;;;;;;;25.90;24.40;;;;;;;;;;5074395;28;20442;-69
2021/07/15 13:41:22;;;;;;;26.43;24.93;;;;;;;;;;5073709;28;20478;-68
2021/07/15 13:43:49;;;;;;;26.43;24.73;;;;;;;;;;5079723;28;20452;-68
2021/07/15 13:46:18;;;;;;;26.23;24.73;;;;;;;;;;5068876;28;20458;-68
2021/07/15 13:48:45;;;;;;;26.10;24.60;;;;;;;;;;5069690;28;20519;-69
2021/07/15 13:51:13;;;;;;;26.47;24.97;;;;;;;;;;5072743;28;20467;-69
2021/07/15 13:53:40;;;;;;;24.87;23.37;;;;;;;;;;5081902;28;20456;-69
2021/07/15 13:56:07;;;;;;;24.80;23.40;;;;;;;;;;5082026;28;20643;-68
2021/07/15 13:58:34;;;;;;;25.50;23.97;;;;;;;;;;5074442;28;20477;-68
2021/07/15 14:01:02;;;;;;;24.67;23.23;;;;;;;;;;5073010;28;20467;-68
2021/07/15 14:03:31;;;;;;;24.23;22.83;;;;;;;;;;5074865;28;20478;-69
2021/07/15 14:06:00;;;;;;;24.10;22.60;;;;;;;;;;5072001;28;20485;-69
2021/07/15 14:08:31;;;;;;;24.47;22.87;;;;;;;;;;5069029;28;20461;-70
2021/07/15 14:10:59;;;;;;;24.40;23.00;;;;;;;;;;5071772;28;21303;-69
2021/07/15 14:13:27;;;;;;;24.10;22.70;;;;;;;;;;5069473;28;20485;-69
2021/07/15 14:15:58;;;;;;;24.80;23.30;;;;;;;;;;5057055;28;20455;-70
2021/07/15 14:18:26;;;;;;;24.17;22.87;;;;;;;;;;5068954;28;20456;-70
2021/07/15 14:20:56;;;;;;;25.13;23.73;;;;;;;;;;5072928;28;20835;-70